Time;durP1;ratioP1;P1;durP2;ratioP2;P2;SDS_P1;SDS_P2;PMS_P1;PMS_P2;Temp;Humidity;BMP_temperature;BMP_pressure;BME280_temperature;BME280_humidity;BME280_pressure;Samples;Min_cycle;Max_cycle;Signal;HPM_P1;HPM_P2
2022/04/27 00:00:25;;;;;;;12.07;9.53;;;15.10;57.80;;;;;;4909229;29;21246;-92
2022/04/27 00:02:53;;;;;;;12.73;8.90;;;15.00;57.60;;;;;;4907478;29;20462;-91
2022/04/27 00:05:22;;;;;;;12.03;8.87;;;15.00;58.20;;;;;;4915624;29;20447;-91
2022/04/27 00:07:50;;;;;;;13.63;9.20;;;15.00;58.30;;;;;;4911463;29;20482;-91
2022/04/27 00:10:22;;;;;;;14.07;8.40;;;14.90;58.40;;;;;;4894618;29;20476;-91
2022/04/27 00:12:50;;;;;;;14.80;10.27;;;15.00;58.50;;;;;;4906394;29;20522;-92
2022/04/27 00:15:20;;;;;;;12.47;8.63;;;15.00;58.70;;;;;;4889765;29;21177;-91
2022/04/27 00:17:48;;;;;;;15.17;8.20;;;15.00;58.60;;;;;;4922428;29;20487;-93
2022/04/27 00:20:16;;;;;;;13.13;9.50;;;15.00;58.50;;;;;;4923267;29;20519;-92
2022/04/27 00:22:45;;;;;;;13.70;9.83;;;15.00;58.30;;;;;;4909887;29;20466;-91
2022/04/27 00:25:13;;;;;;;12.83;7.90;;;15.10;58.30;;;;;;4895243;29;20542;-91
2022/04/27 00:27:42;;;;;;;9.10;7.87;;;15.00;58.10;;;;;;4917018;29;20480;-93
2022/04/27 00:30:12;;;;;;;13.40;8.87;;;15.00;57.80;;;;;;4916141;29;20651;-92
2022/04/27 00:32:41;;;;;;;13.73;8.80;;;15.00;58.00;;;;;;4904966;29;20472;-91
2022/04/27 00:35:10;;;;;;;10.97;8.60;;;14.80;58.50;;;;;;4908723;29;20500;-93
2022/04/27 00:37:39;;;;;;;12.03;9.00;;;14.80;58.70;;;;;;4899245;29;20495;-91
2022/04/27 00:40:09;;;;;;;10.93;8.40;;;14.80;58.30;;;;;;4923727;29;20452;-92
2022/04/27 00:42:39;;;;;;;11.03;8.90;;;14.90;58.40;;;;;;4909901;29;20586;-92
2022/04/27 00:45:11;;;;;;;13.80;9.70;;;14.90;58.10;;;;;;4908587;29;20456;-91
2022/04/27 00:47:41;;;;;;;11.93;8.27;;;14.90;58.00;;;;;;4904276;29;20471;-93
2022/04/27 00:50:12;;;;;;;10.93;9.10;;;14.90;58.10;;;;;;4893345;29;20999;-91
2022/04/27 00:52:40;;;;;;;14.27;9.37;;;14.90;57.90;;;;;;4905352;29;20468;-92
2022/04/27 00:55:09;;;;;;;14.70;10.00;;;15.00;57.90;;;;;;4903089;29;20461;-91
2022/04/27 00:57:39;;;;;;;16.03;9.67;;;14.90;57.60;;;;;;4889123;29;20458;-91
2022/04/27 01:00:11;;;;;;;13.27;9.50;;;14.90;57.80;;;;;;4919385;29;20480;-91
2022/04/27 01:02:40;;;;;;;12.90;9.00;;;14.90;58.60;;;;;;4909190;29;20467;-90
2022/04/27 01:05:11;;;;;;;10.53;8.57;;;14.90;58.50;;;;;;4894738;29;20491;-91
2022/04/27 01:07:40;;;;;;;18.60;9.37;;;14.90;58.50;;;;;;4920663;29;20519;-93
2022/04/27 01:10:12;;;;;;;15.10;10.20;;;14.90;58.50;;;;;;4910879;29;20466;-91
2022/04/27 01:12:43;;;;;;;14.93;9.23;;;14.90;58.30;;;;;;4908365;29;20566;-91
2022/04/27 01:18:11;;;;;;;12.87;9.57;;;14.90;58.40;;;;;;5096837;27;20570;-90
2022/04/27 01:20:44;;;;;;;15.20;9.90;;;14.90;58.40;;;;;;5043138;28;20436;-90
2022/04/27 01:23:14;;;;;;;15.30;9.70;;;14.90;58.30;;;;;;5026448;28;20503;-90
2022/04/27 01:25:52;;;;;;;16.20;9.80;;;15.00;58.20;;;;;;5022069;28;20446;-90
2022/04/27 01:28:22;;;;;;;14.63;9.90;;;14.90;58.10;;;;;;5039121;28;20507;-90
2022/04/27 01:30:57;;;;;;;14.63;10.10;;;14.90;58.20;;;;;;5070851;28;21401;-90
2022/04/27 01:33:28;;;;;;;11.80;8.20;;;14.90;58.00;;;;;;5028717;28;20504;-91
2022/04/27 01:35:58;;;;;;;16.83;10.60;;;14.90;58.00;;;;;;5020820;28;20499;-90
2022/04/27 01:38:27;;;;;;;15.20;10.63;;;14.90;58.00;;;;;;5054155;28;20434;-90
2022/04/27 01:40:56;;;;;;;12.10;9.17;;;14.90;57.80;;;;;;5030205;28;20999;-92
2022/04/27 01:43:24;;;;;;;15.50;10.77;;;14.90;57.80;;;;;;5052395;28;20515;-92
2022/04/27 01:45:53;;;;;;;16.90;10.17;;;14.90;58.00;;;;;;5024210;28;20471;-90
2022/04/27 01:48:22;;;;;;;18.87;10.87;;;14.90;58.20;;;;;;5034735;28;20524;-90
2022/04/27 01:50:50;;;;;;;12.30;9.27;;;14.90;58.20;;;;;;5046753;28;20466;-90
2022/04/27 01:56:10;;;;;;;15.37;9.97;;;14.90;57.70;;;;;;5018877;28;20434;-87
2022/04/27 01:58:45;;;;;;;12.00;9.07;;;14.80;57.60;;;;;;5039571;28;20876;-91
2022/04/27 02:01:13;;;;;;;11.67;8.73;;;14.80;57.50;;;;;;5024621;28;21301;-90
2022/04/27 02:03:43;;;;;;;11.03;8.40;;;14.80;57.40;;;;;;5034023;28;20834;-89
2022/04/27 02:06:16;;;;;;;14.83;8.93;;;14.80;57.30;;;;;;5036830;28;20441;-90
2022/04/27 02:08:47;;;;;;;13.87;9.27;;;14.60;56.90;;;;;;5053134;28;20446;-91
2022/04/27 02:11:20;;;;;;;13.10;9.40;;;14.50;57.00;;;;;;5047609;28;20437;-90
2022/04/27 02:13:59;;;;;;;14.50;8.70;;;14.40;56.80;;;;;;5040070;28;20548;-90
2022/04/27 02:16:30;;;;;;;12.17;7.90;;;14.30;57.00;;;;;;5033347;28;20491;-92
2022/04/27 02:18:59;;;;;;;13.10;8.53;;;14.30;57.00;;;;;;5020474;28;20449;-89
2022/04/27 02:21:27;;;;;;;12.20;8.60;;;14.20;57.10;;;;;;5041276;28;20452;-93
2022/04/27 02:24:00;;;;;;;13.47;9.40;;;14.20;57.00;;;;;;5021744;28;20832;-89
2022/04/27 02:26:30;;;;;;;12.47;9.10;;;14.20;57.00;;;;;;5032844;28;20804;-91
2022/04/27 02:29:00;;;;;;;14.20;9.30;;;14.20;57.20;;;;;;5024160;28;20449;-90
2022/04/27 02:31:29;;;;;;;11.60;8.37;;;14.30;57.10;;;;;;5008578;28;20447;-90
2022/04/27 02:33:58;;;;;;;10.70;8.10;;;14.30;56.70;;;;;;5007997;28;20838;-90
2022/04/27 02:36:27;;;;;;;10.53;8.53;;;14.20;56.30;;;;;;5024863;28;20631;-90
2022/04/27 02:38:56;;;;;;;14.20;9.30;;;14.10;56.50;;;;;;5036262;28;20438;-90
2022/04/27 02:41:25;;;;;;;14.13;9.77;;;14.10;56.50;;;;;;5022351;28;20513;-90
2022/04/27 02:43:56;;;;;;;13.03;8.00;;;13.90;56.90;;;;;;5020472;28;20469;-88
2022/04/27 02:46:23;;;;;;;14.53;9.60;;;13.90;57.60;;;;;;5012380;28;20468;-90
2022/04/27 02:51:52;;;;;;;11.40;9.13;;;14.00;57.20;;;;;;5010042;28;20453;-90
2022/04/27 02:54:48;;;;;;;11.50;8.63;;;13.90;57.30;;;;;;5033124;28;20964;-90
2022/04/27 02:57:18;;;;;;;10.13;8.20;;;13.80;57.60;;;;;;5028178;28;20489;-90
2022/04/27 02:59:47;;;;;;;15.93;9.10;;;13.50;57.80;;;;;;5037522;28;20790;-90
2022/04/27 03:02:18;;;;;;;14.00;9.47;;;13.20;58.60;;;;;;5029490;28;20443;-90
2022/04/27 03:04:46;;;;;;;13.33;9.13;;;12.90;59.60;;;;;;5003501;28;20804;-90
2022/04/27 03:07:15;;;;;;;13.73;8.70;;;12.90;59.40;;;;;;5037917;28;20991;-91
2022/04/27 03:09:49;;;;;;;11.50;8.30;;;13.10;58.90;;;;;;5007254;28;20986;-90
2022/04/27 03:12:19;;;;;;;12.97;9.40;;;13.30;58.10;;;;;;5004643;28;20450;-91
2022/04/27 03:14:50;;;;;;;12.30;8.30;;;13.00;58.50;;;;;;5019888;28;20461;-90
2022/04/27 03:17:19;;;;;;;18.40;9.57;;;13.10;58.90;;;;;;5021711;28;20472;-90
2022/04/27 03:19:47;;;;;;;14.13;10.00;;;13.30;58.70;;;;;;5034477;28;20966;-90
2022/04/27 03:22:16;;;;;;;19.93;11.47;;;13.10;58.30;;;;;;5008136;28;20450;-89
2022/04/27 03:24:46;;;;;;;14.50;9.33;;;13.10;58.30;;;;;;5038426;28;20454;-90
2022/04/27 03:27:19;;;;;;;14.07;9.30;;;13.20;58.30;;;;;;5011119;28;20456;-89
2022/04/27 03:29:50;;;;;;;17.33;11.10;;;13.30;58.20;;;;;;5004815;28;20445;-90
2022/04/27 03:32:20;;;;;;;13.93;9.90;;;13.40;58.00;;;;;;5011613;28;20458;-91
2022/04/27 03:34:55;;;;;;;15.07;9.80;;;13.50;57.40;;;;;;5017694;28;20454;-91
2022/04/27 03:37:28;;;;;;;16.50;11.17;;;13.50;57.30;;;;;;5009975;28;20543;-90
2022/04/27 03:39:56;;;;;;;17.80;11.70;;;13.50;57.30;;;;;;5017343;28;20442;-91
2022/04/27 03:42:27;;;;;;;19.30;11.70;;;13.50;57.70;;;;;;5009439;28;20455;-90
2022/04/27 03:45:00;;;;;;;16.80;11.07;;;13.60;56.90;;;;;;5010948;28;20440;-90
2022/04/27 03:47:33;;;;;;;14.30;9.77;;;13.60;56.80;;;;;;5001056;28;20441;-90
2022/04/27 03:50:04;;;;;;;18.40;10.90;;;13.60;56.90;;;;;;5026505;28;20470;-93
2022/04/27 03:52:39;;;;;;;14.93;9.80;;;13.60;56.90;;;;;;5007300;28;20519;-91
2022/04/27 03:55:09;;;;;;;20.20;11.07;;;13.70;57.10;;;;;;5026247;28;20799;-91
2022/04/27 03:57:40;;;;;;;17.27;11.30;;;13.70;57.20;;;;;;5023160;28;20470;-91
2022/04/27 04:00:09;;;;;;;21.40;12.00;;;13.70;57.40;;;;;;5007974;28;21194;-92
2022/04/27 04:02:42;;;;;;;18.83;10.17;;;13.70;57.70;;;;;;5033583;28;20461;-91
2022/04/27 04:05:10;;;;;;;19.27;10.97;;;13.60;58.10;;;;;;5006878;28;22718;-92
2022/04/27 04:07:40;;;;;;;34.57;10.97;;;13.60;58.50;;;;;;5016069;28;20431;-90
2022/04/27 04:10:10;;;;;;;19.43;12.10;;;13.50;58.60;;;;;;5004706;28;20442;-91
2022/04/27 04:12:45;;;;;;;30.80;14.70;;;13.60;58.80;;;;;;5039841;28;20823;-90
2022/04/27 04:15:43;;;;;;;26.73;16.47;;;13.60;59.00;;;;;;5029517;28;20583;-90
2022/04/27 04:18:14;;;;;;;25.33;11.43;;;13.60;58.80;;;;;;5032265;28;20497;-90
2022/04/27 04:20:47;;;;;;;19.97;11.80;;;13.60;58.50;;;;;;5014083;28;20974;-91
2022/04/27 04:23:36;;;;;;;39.33;13.23;;;13.60;58.90;;;;;;5044048;28;20523;-90
2022/04/27 04:28:58;;;;;;;39.13;13.47;;;12.90;60.00;;;;;;5020215;28;20473;-90
2022/04/27 04:31:26;;;;;;;28.43;13.53;;;13.00;60.50;;;;;;5011785;28;20864;-91
2022/04/27 04:34:17;;;;;;;26.50;13.03;;;13.00;60.50;;;;;;5032116;28;20469;-89
2022/04/27 04:36:46;;;;;;;20.10;11.20;;;13.20;60.30;;;;;;5020041;28;20446;-90
2022/04/27 04:39:16;;;;;;;38.40;13.27;;;13.30;60.10;;;;;;5006633;28;20438;-90
2022/04/27 04:41:47;;;;;;;35.83;15.33;;;13.20;59.80;;;;;;5005929;28;20457;-89
2022/04/27 04:44:17;;;;;;;48.57;13.10;;;13.20;59.80;;;;;;5019631;28;20892;-90
2022/04/27 04:47:22;;;;;;;40.17;14.43;;;13.10;59.60;;;;;;4984177;28;20574;-89
2022/04/27 04:50:25;;;;;;;22.00;13.27;;;12.90;60.60;;;;;;5021479;28;20836;-89
2022/04/27 04:53:01;;;;;;;43.10;12.50;;;13.00;60.50;;;;;;5020551;28;20473;-90
2022/04/27 04:55:56;;;;;;;39.53;13.73;;;13.20;60.00;;;;;;5024473;28;20442;-90
2022/04/27 04:58:56;;;;;;;26.00;12.87;;;13.10;59.80;;;;;;5030848;28;20500;-89
2022/04/27 05:01:38;;;;;;;30.50;12.20;;;13.10;60.00;;;;;;5015399;28;20476;-88
2022/04/27 05:04:17;;;;;;;23.57;13.50;;;13.20;60.00;;;;;;5006169;28;20604;-89
2022/04/27 05:06:55;;;;;;;22.57;13.30;;;13.30;59.60;;;;;;5032728;28;21929;-89
2022/04/27 05:09:34;;;;;;;26.77;13.60;;;13.30;59.30;;;;;;5031656;28;20525;-90
2022/04/27 05:12:22;;;;;;;28.70;13.57;;;13.10;59.80;;;;;;5014828;28;20506;-90
2022/04/27 05:15:12;;;;;;;26.57;13.57;;;12.90;60.10;;;;;;5046331;28;20855;-89
2022/04/27 05:17:45;;;;;;;32.13;13.70;;;13.10;59.90;;;;;;5029866;28;20477;-89
2022/04/27 05:20:42;;;;;;;24.60;13.23;;;13.20;59.40;;;;;;5022388;28;20952;-91
2022/04/27 05:23:22;;;;;;;26.63;12.90;;;13.40;59.00;;;;;;5030659;28;20457;-91
2022/04/27 05:26:19;;;;;;;27.13;13.47;;;13.30;59.20;;;;;;5017370;28;20454;-89
2022/04/27 05:32:12;;;;;;;27.10;14.77;;;13.00;59.90;;;;;;5000830;28;20465;-90
2022/04/27 05:34:47;;;;;;;29.90;14.30;;;12.80;60.50;;;;;;4999624;28;20449;-89
2022/04/27 05:37:22;;;;;;;59.43;16.50;;;13.00;60.40;;;;;;5031606;28;20462;-90
2022/04/27 05:40:17;;;;;;;29.87;15.13;;;13.00;60.00;;;;;;5030540;28;20900;-88
2022/04/27 05:43:00;;;;;;;37.80;16.50;;;13.00;60.60;;;;;;5020494;28;20467;-89
2022/04/27 05:45:50;;;;;;;29.87;13.40;;;13.10;60.40;;;;;;5026296;28;20972;-88
2022/04/27 05:48:46;;;;;;;34.10;15.93;;;13.30;59.50;;;;;;5010776;28;20445;-89
2022/04/27 05:51:16;;;;;;;30.43;15.30;;;13.10;59.90;;;;;;5026811;28;20529;-89
2022/04/27 05:54:03;;;;;;;36.90;14.43;;;13.00;60.20;;;;;;5028847;28;20569;-89
2022/04/27 05:56:51;;;;;;;26.70;13.97;;;12.50;61.00;;;;;;5033615;28;20435;-89
2022/04/27 05:59:35;;;;;;;35.13;15.90;;;12.70;61.80;;;;;;5021619;28;20564;-89
2022/04/27 06:02:28;;;;;;;32.27;15.40;;;12.70;61.00;;;;;;5026730;28;20449;-90
2022/04/27 06:04:57;;;;;;;30.73;15.50;;;12.90;61.20;;;;;;5024866;28;20454;-91
2022/04/27 06:07:27;;;;;;;31.80;15.63;;;13.00;60.60;;;;;;5019134;28;20459;-89
2022/04/27 06:09:59;;;;;;;31.90;15.10;;;13.20;60.20;;;;;;5014195;28;20448;-91
2022/04/27 06:12:36;;;;;;;53.27;17.17;;;13.20;60.20;;;;;;5036296;28;20514;-90
2022/04/27 06:15:24;;;;;;;30.03;15.40;;;13.30;60.20;;;;;;5033224;28;20434;-89
2022/04/27 06:17:58;;;;;;;37.03;14.00;;;13.20;60.20;;;;;;5018006;28;20470;-89
2022/04/27 06:20:27;;;;;;;27.87;14.63;;;12.90;60.60;;;;;;5026344;28;20480;-90
2022/04/27 06:22:57;;;;;;;26.83;14.30;;;12.80;61.60;;;;;;5019903;28;20671;-89
2022/04/27 06:25:26;;;;;;;30.00;14.13;;;12.80;62.00;;;;;;5025988;28;20822;-91
2022/04/27 06:28:05;;;;;;;31.97;15.43;;;12.60;61.90;;;;;;5025651;28;20444;-91
2022/04/27 06:30:35;;;;;;;28.97;15.13;;;12.60;62.70;;;;;;5026194;28;21148;-90
2022/04/27 06:33:04;;;;;;;27.70;14.83;;;12.60;62.50;;;;;;5037008;28;20477;-89
2022/04/27 06:35:33;;;;;;;30.83;16.17;;;12.60;62.60;;;;;;5043349;28;20442;-89
2022/04/27 06:38:11;;;;;;;29.93;15.43;;;12.70;62.40;;;;;;5030925;28;20465;-91
2022/04/27 06:40:40;;;;;;;32.17;16.67;;;12.60;62.70;;;;;;5019517;28;20539;-90
2022/04/27 06:43:09;;;;;;;29.53;15.63;;;12.70;62.50;;;;;;5014975;28;20875;-90
2022/04/27 06:45:47;;;;;;;25.57;14.90;;;12.60;62.70;;;;;;5026156;28;20452;-90
2022/04/27 06:48:35;;;;;;;24.90;14.37;;;12.60;62.20;;;;;;5027083;28;20430;-89
2022/04/27 06:51:30;;;;;;;28.33;14.40;;;12.60;62.70;;;;;;5004965;28;20470;-89
2022/04/27 06:54:12;;;;;;;23.20;12.77;;;12.80;61.40;;;;;;5022428;28;20483;-88
2022/04/27 06:57:00;;;;;;;30.17;16.67;;;13.00;61.00;;;;;;5022670;28;20464;-89
2022/04/27 06:59:41;;;;;;;28.07;13.97;;;13.30;60.60;;;;;;5034842;28;20461;-89
2022/04/27 07:02:16;;;;;;;28.33;14.67;;;13.50;59.70;;;;;;5031238;28;20903;-89
2022/04/27 07:04:59;;;;;;;25.43;14.97;;;13.50;59.10;;;;;;5019195;28;20520;-90
2022/04/27 07:07:29;;;;;;;28.77;13.90;;;13.40;59.70;;;;;;5034542;28;20444;-90
2022/04/27 07:09:59;;;;;;;27.63;15.40;;;13.50;60.20;;;;;;5023588;28;20544;-89
2022/04/27 07:12:33;;;;;;;32.43;18.47;;;13.70;59.40;;;;;;5010961;28;21008;-91
2022/04/27 07:15:02;;;;;;;26.87;13.87;;;13.60;59.40;;;;;;5025408;28;20473;-88
2022/04/27 07:17:34;;;;;;;27.23;15.33;;;13.60;59.50;;;;;;5013092;28;20979;-89
2022/04/27 07:20:02;;;;;;;23.90;14.57;;;13.70;59.50;;;;;;5016062;28;20449;-88
2022/04/27 07:22:29;;;;;;;24.87;13.93;;;13.50;59.60;;;;;;5015740;28;20445;-91
2022/04/27 07:24:58;;;;;;;39.13;18.90;;;13.20;59.80;;;;;;5008182;28;20440;-89
2022/04/27 07:27:27;;;;;;;20.70;13.63;;;13.40;60.20;;;;;;5017443;28;20453;-88
2022/04/27 07:29:54;;;;;;;41.07;20.50;;;13.60;59.30;;;;;;5036293;28;20532;-89
2022/04/27 07:32:23;;;;;;;26.93;15.13;;;13.60;59.60;;;;;;5046201;28;20506;-89
2022/04/27 07:34:54;;;;;;;26.90;14.50;;;13.70;59.70;;;;;;5035196;28;20454;-92
2022/04/27 07:37:22;;;;;;;25.00;14.80;;;13.70;59.60;;;;;;5019668;28;20493;-91
2022/04/27 07:39:49;;;;;;;19.43;12.43;;;13.80;59.80;;;;;;5036477;28;20469;-90
2022/04/27 07:42:18;;;;;;;23.83;14.20;;;13.80;60.00;;;;;;5035839;28;20874;-90
2022/04/27 07:44:46;;;;;;;24.23;14.70;;;13.70;59.70;;;;;;5035914;28;20456;-90
2022/04/27 07:47:15;;;;;;;30.80;19.33;;;13.80;60.20;;;;;;5022135;28;20528;-90
2022/04/27 07:49:44;;;;;;;23.33;13.50;;;14.00;59.70;;;;;;5028332;28;20467;-90
2022/04/27 07:52:12;;;;;;;24.80;14.83;;;14.20;59.00;;;;;;5021662;28;20499;-90
2022/04/27 07:54:42;;;;;;;19.67;14.27;;;14.10;59.20;;;;;;5008691;28;21033;-92
2022/04/27 07:57:11;;;;;;;24.90;14.70;;;14.10;59.10;;;;;;5021897;28;22115;-90
2022/04/27 07:59:40;;;;;;;21.00;13.67;;;14.30;59.00;;;;;;5020630;28;21007;-88
2022/04/27 08:02:08;;;;;;;24.80;15.13;;;14.40;59.10;;;;;;5033553;28;20453;-89
2022/04/27 08:04:37;;;;;;;25.17;15.37;;;14.60;58.80;;;;;;5048095;28;20584;-91
2022/04/27 08:07:06;;;;;;;26.63;16.00;;;14.80;58.40;;;;;;5038064;28;20485;-90
2022/04/27 08:09:34;;;;;;;23.83;13.57;;;14.80;57.80;;;;;;5029784;28;20441;-91
2022/04/27 08:12:03;;;;;;;22.80;14.23;;;14.80;58.30;;;;;;5021753;28;20499;-90
2022/04/27 08:14:31;;;;;;;27.77;15.50;;;14.70;58.30;;;;;;5023310;28;20841;-90
2022/04/27 08:17:02;;;;;;;26.03;16.03;;;14.50;58.40;;;;;;5035941;28;20467;-89
2022/04/27 08:19:30;;;;;;;26.83;14.90;;;14.50;58.90;;;;;;5021129;28;20475;-90
2022/04/27 08:21:59;;;;;;;23.87;14.90;;;14.40;59.20;;;;;;5033857;28;20448;-90
2022/04/27 08:24:27;;;;;;;28.53;18.07;;;14.70;59.60;;;;;;5009258;28;20488;-90
2022/04/27 08:26:55;;;;;;;23.40;15.53;;;15.10;59.20;;;;;;5020604;28;20449;-90
2022/04/27 08:29:23;;;;;;;22.87;13.80;;;15.30;58.00;;;;;;5024622;28;20921;-90
2022/04/27 08:31:53;;;;;;;23.70;14.83;;;15.30;57.60;;;;;;5017648;28;20564;-88
2022/04/27 08:34:24;;;;;;;23.63;15.20;;;15.40;57.80;;;;;;5044198;28;20475;-90
2022/04/27 08:36:55;;;;;;;26.03;15.03;;;15.10;58.70;;;;;;5018940;28;21071;-90
2022/04/27 08:39:24;;;;;;;25.90;16.10;;;15.20;58.80;;;;;;5031494;28;20464;-91
2022/04/27 08:41:53;;;;;;;27.33;16.47;;;15.30;59.00;;;;;;5008461;28;20907;-90
2022/04/27 08:44:21;;;;;;;21.80;14.30;;;15.50;58.80;;;;;;5034267;28;20526;-90
2022/04/27 08:46:49;;;;;;;22.17;15.07;;;15.50;58.50;;;;;;5030317;28;20465;-90
2022/04/27 08:49:17;;;;;;;21.20;14.10;;;15.70;59.00;;;;;;5024446;28;20433;-90
2022/04/27 08:51:48;;;;;;;18.17;12.60;;;15.90;58.40;;;;;;5033383;28;20479;-90
2022/04/27 08:54:17;;;;;;;21.07;13.20;;;16.10;57.40;;;;;;5034491;28;20457;-90
2022/04/27 08:56:46;;;;;;;21.77;13.40;;;16.20;57.40;;;;;;5034882;28;20453;-91
2022/04/27 08:59:13;;;;;;;19.47;13.60;;;16.50;56.90;;;;;;5024360;28;20555;-90
2022/04/27 09:01:41;;;;;;;20.73;13.63;;;16.60;56.90;;;;;;5025219;28;20453;-90
2022/04/27 09:04:15;;;;;;;23.43;15.77;;;16.40;57.50;;;;;;5033572;28;20472;-90
2022/04/27 09:06:44;;;;;;;20.17;13.23;;;16.50;57.50;;;;;;5017036;28;20447;-92
2022/04/27 09:09:33;;;;;;;21.93;14.50;;;16.80;57.10;;;;;;5020322;28;21011;-92
2022/04/27 09:12:02;;;;;;;20.80;14.80;;;16.90;56.60;;;;;;5042450;28;20834;-90
2022/04/27 09:14:39;;;;;;;19.43;14.67;;;17.10;56.30;;;;;;5018190;28;20481;-90
2022/04/27 09:23:03;;;;;;;15.80;10.87;;;17.50;55.90;;;;;;5026813;28;20463;-90
2022/04/27 09:25:34;;;;;;;18.20;11.90;;;17.90;55.10;;;;;;5022112;28;20449;-90
2022/04/27 09:28:03;;;;;;;13.63;10.93;;;18.10;53.10;;;;;;5017737;28;20500;-90
2022/04/27 09:30:33;;;;;;;16.70;12.10;;;18.20;53.40;;;;;;5028108;28;20449;-91
2022/04/27 09:33:02;;;;;;;16.20;12.13;;;18.30;53.10;;;;;;5034961;28;20465;-91
2022/04/27 09:35:32;;;;;;;26.60;18.60;;;18.60;53.00;;;;;;5041699;28;20448;-91
2022/04/27 09:38:14;;;;;;;25.77;14.80;;;18.80;52.70;;;;;;5019943;28;20539;-91
2022/04/27 09:40:49;;;;;;;18.57;10.83;;;18.80;52.80;;;;;;5048167;28;20468;-92
2022/04/27 09:43:17;;;;;;;19.23;13.97;;;19.10;52.00;;;;;;5060528;28;20460;-91
2022/04/27 09:45:46;;;;;;;14.60;10.10;;;19.20;52.10;;;;;;5034315;28;20446;-91
2022/04/27 09:48:19;;;;;;;14.10;10.10;;;19.30;50.40;;;;;;5014815;28;20564;-91
2022/04/27 09:50:50;;;;;;;11.57;8.40;;;19.60;50.80;;;;;;5055844;28;20833;-90
2022/04/27 09:53:19;;;;;;;12.63;10.20;;;19.70;49.20;;;;;;5042716;28;20828;-90
2022/04/27 09:55:51;;;;;;;16.40;8.87;;;19.30;46.60;;;;;;5033785;28;20441;-92
2022/04/27 09:58:20;;;;;;;15.50;9.70;;;19.20;47.50;;;;;;5026314;28;20547;-90
2022/04/27 10:00:49;;;;;;;11.87;8.17;;;19.10;47.10;;;;;;5033696;28;20487;-89
2022/04/27 10:03:19;;;;;;;11.10;7.47;;;19.20;46.00;;;;;;5033167;28;20465;-91
2022/04/27 10:05:49;;;;;;;11.57;7.87;;;19.30;44.40;;;;;;5016615;28;20461;-93
2022/04/27 10:08:20;;;;;;;11.93;9.10;;;19.50;48.10;;;;;;5047300;28;20476;-90
2022/04/27 10:10:51;;;;;;;10.10;8.70;;;20.00;46.50;;;;;;5027460;28;20977;-91
2022/04/27 10:13:19;;;;;;;9.90;7.60;;;19.90;45.70;;;;;;5011620;28;20901;-90
2022/04/27 10:15:49;;;;;;;17.00;10.80;;;20.10;45.10;;;;;;5028770;28;21097;-90
2022/04/27 10:18:18;;;;;;;7.37;6.40;;;20.50;45.80;;;;;;5015717;28;20473;-90
2022/04/27 10:20:51;;;;;;;9.33;7.10;;;20.50;43.30;;;;;;5034893;28;20457;-88
2022/04/27 10:23:22;;;;;;;8.87;5.80;;;20.60;44.10;;;;;;5025196;28;21018;-89
2022/04/27 10:26:15;;;;;;;6.77;5.80;;;20.70;43.50;;;;;;5013546;28;20450;-88
2022/04/27 10:28:50;;;;;;;6.70;5.47;;;20.80;43.70;;;;;;5025785;28;21191;-90
2022/04/27 10:31:56;;;;;;;8.00;5.73;;;21.00;42.30;;;;;;5037270;28;20441;-90
2022/04/27 10:34:25;;;;;;;5.87;5.30;;;20.90;42.60;;;;;;5022369;28;20479;-89
2022/04/27 10:36:57;;;;;;;6.83;5.77;;;20.70;43.70;;;;;;5038403;28;20460;-93
2022/04/27 10:39:27;;;;;;;8.40;6.00;;;21.10;44.10;;;;;;5026849;28;20527;-90
2022/04/27 10:42:34;;;;;;;6.70;5.37;;;21.30;41.60;;;;;;5011073;28;20834;-90
2022/04/27 10:45:13;;;;;;;7.63;6.07;;;21.40;43.00;;;;;;5041678;28;20530;-87
2022/04/27 10:47:43;;;;;;;7.77;5.50;;;21.70;42.80;;;;;;5053394;28;20470;-90
2022/04/27 10:50:33;;;;;;;6.53;5.93;;;21.80;43.70;;;;;;5050826;28;20476;-89
2022/04/27 10:53:22;;;;;;;8.17;6.60;;;22.10;40.90;;;;;;5009077;28;20561;-90
2022/04/27 10:55:53;;;;;;;5.90;5.23;;;22.10;41.20;;;;;;5022336;28;20513;-87
2022/04/27 10:58:34;;;;;;;5.73;4.67;;;22.00;40.20;;;;;;5035079;28;20836;-90
2022/04/27 11:01:27;;;;;;;7.00;5.90;;;22.00;39.20;;;;;;5041890;28;20464;-90
2022/04/27 11:03:59;;;;;;;6.77;5.57;;;22.00;39.40;;;;;;5035930;28;20860;-90
2022/04/27 11:06:30;;;;;;;5.87;5.03;;;21.80;41.00;;;;;;5037862;28;20449;-91
2022/04/27 11:09:13;;;;;;;6.67;4.93;;;21.70;39.50;;;;;;5037911;28;21049;-90
2022/04/27 11:11:51;;;;;;;5.90;5.30;;;21.30;41.10;;;;;;5053101;28;20447;-90
2022/04/27 11:14:31;;;;;;;5.30;4.80;;;21.30;40.30;;;;;;5041138;28;20523;-90
2022/04/27 11:16:59;;;;;;;5.00;4.60;;;20.90;39.80;;;;;;5018867;28;20484;-90
2022/04/27 11:19:39;;;;;;;5.83;4.80;;;20.50;40.00;;;;;;5016242;28;20576;-89
2022/04/27 11:22:15;;;;;;;4.80;4.40;;;20.50;40.50;;;;;;5018246;28;20449;-92
2022/04/27 11:24:45;;;;;;;7.70;5.00;;;20.80;40.50;;;;;;5036384;28;20875;-89
2022/04/27 11:27:13;;;;;;;5.73;4.60;;;21.10;39.70;;;;;;5034774;28;20437;-90
2022/04/27 11:29:42;;;;;;;4.33;3.97;;;21.10;40.60;;;;;;5033506;28;20448;-90
2022/04/27 11:32:10;;;;;;;4.57;3.70;;;21.30;39.10;;;;;;5019212;28;20485;-89
2022/04/27 11:34:39;;;;;;;8.13;4.70;;;21.30;39.60;;;;;;5038881;28;20472;-91
2022/04/27 11:37:18;;;;;;;4.70;3.83;;;21.10;39.00;;;;;;5040609;28;20456;-88
2022/04/27 11:39:47;;;;;;;4.43;4.03;;;21.20;39.40;;;;;;5006153;28;20703;-90
2022/04/27 11:42:16;;;;;;;4.33;3.73;;;21.20;40.00;;;;;;5020342;28;20539;-88
2022/04/27 11:44:51;;;;;;;4.90;4.07;;;21.30;39.70;;;;;;5033958;28;20839;-90
2022/04/27 11:47:27;;;;;;;4.40;4.00;;;21.40;40.90;;;;;;5030823;28;20448;-90
2022/04/27 11:49:56;;;;;;;4.97;4.00;;;21.60;40.10;;;;;;5041045;28;20437;-90
2022/04/27 11:55:16;;;;;;;6.10;3.77;;;22.40;40.50;;;;;;5051072;28;20437;-90
2022/04/27 11:57:44;;;;;;;5.90;4.47;;;23.00;39.50;;;;;;5020305;28;20488;-89
2022/04/27 12:00:20;;;;;;;9.63;4.47;;;23.30;37.10;;;;;;5017684;28;20476;-92
2022/04/27 12:02:48;;;;;;;6.23;5.00;;;23.20;35.60;;;;;;5031090;28;20964;-91
2022/04/27 12:05:15;;;;;;;5.40;4.40;;;23.50;36.20;;;;;;5035182;28;20478;-89
2022/04/27 12:07:48;;;;;;;5.07;4.17;;;23.60;34.10;;;;;;5017122;28;20531;-90
2022/04/27 12:10:16;;;;;;;5.23;4.63;;;23.10;33.80;;;;;;5021433;28;20548;-88
2022/04/27 12:12:43;;;;;;;4.57;4.17;;;22.70;34.80;;;;;;5055335;28;20703;-90
2022/04/27 12:15:14;;;;;;;5.33;4.40;;;23.00;34.30;;;;;;5035648;28;20482;-89
2022/04/27 12:17:48;;;;;;;4.70;4.23;;;23.00;34.10;;;;;;5032467;28;20548;-91
2022/04/27 12:20:37;;;;;;;5.13;4.67;;;23.10;34.70;;;;;;5016248;28;20507;-87
2022/04/27 12:23:06;;;;;;;4.33;4.00;;;23.10;33.60;;;;;;5052877;28;20477;-89
2022/04/27 12:25:42;;;;;;;4.17;3.77;;;23.10;34.00;;;;;;5055564;28;20448;-93
2022/04/27 12:28:12;;;;;;;6.67;4.23;;;23.30;31.40;;;;;;5017106;28;20464;-89
2022/04/27 12:30:51;;;;;;;3.93;3.63;;;23.30;31.70;;;;;;5034869;28;20441;-89
2022/04/27 12:33:21;;;;;;;5.00;4.27;;;23.20;33.80;;;;;;5031262;28;20558;-89
2022/04/27 12:38:37;;;;;;;6.30;3.10;;;22.80;29.90;;;;;;5019826;28;20453;-94
2022/04/27 12:41:06;;;;;;;3.03;2.73;;;23.20;29.20;;;;;;5041666;28;20468;-91
2022/04/27 12:43:33;;;;;;;5.60;3.10;;;23.30;28.20;;;;;;5027169;28;20538;-90
2022/04/27 12:46:08;;;;;;;3.20;3.00;;;23.30;28.60;;;;;;5034836;28;20535;-90
2022/04/27 12:48:36;;;;;;;4.73;3.17;;;23.00;28.90;;;;;;5042989;28;20447;-90
2022/04/27 12:51:04;;;;;;;3.00;2.73;;;23.20;28.30;;;;;;5013438;28;20453;-91
2022/04/27 12:53:31;;;;;;;3.17;2.80;;;23.80;29.40;;;;;;5015620;28;20469;-90
2022/04/27 12:56:04;;;;;;;4.70;2.80;;;24.20;27.50;;;;;;5047469;28;20465;-89
2022/04/27 12:58:31;;;;;;;3.07;2.87;;;24.20;25.20;;;;;;5042402;28;20455;-87
2022/04/27 13:00:59;;;;;;;3.60;3.23;;;23.80;28.30;;;;;;5029511;28;20469;-90
2022/04/27 13:03:27;;;;;;;3.00;2.70;;;23.70;26.60;;;;;;5030820;28;20465;-88
2022/04/27 13:05:54;;;;;;;3.27;2.90;;;23.80;28.70;;;;;;5030966;28;20449;-89
2022/04/27 13:08:22;;;;;;;3.70;2.80;;;24.10;28.60;;;;;;5020639;28;20501;-90
2022/04/27 13:13:34;;;;;;;2.67;2.47;;;24.00;28.00;;;;;;5048813;28;20575;-89
2022/04/27 13:16:01;;;;;;;3.07;2.87;;;24.10;27.60;;;;;;5016032;28;20445;-90
2022/04/27 13:18:29;;;;;;;3.13;2.60;;;23.90;27.60;;;;;;5047385;28;20470;-89
2022/04/27 13:20:56;;;;;;;3.23;2.97;;;23.20;28.00;;;;;;5030418;28;20827;-90
2022/04/27 13:23:23;;;;;;;2.87;2.60;;;23.00;28.40;;;;;;5014544;28;20940;-89
2022/04/27 13:25:50;;;;;;;2.97;2.63;;;22.90;27.80;;;;;;5045310;28;20460;-88
2022/04/27 13:28:18;;;;;;;2.83;2.63;;;22.80;28.20;;;;;;5029958;28;20827;-89
2022/04/27 13:30:45;;;;;;;3.10;2.13;;;22.70;27.50;;;;;;5028704;28;20475;-88